sensor_id;sensor_type;location;lat;lon;timestamp;P1;durP1;ratioP1;P2;durP2;ratioP2
82374;SDS011;72005;50.496;15.798;2023-12-20T00:00:59;6.50;;;4.68;;
82374;SDS011;72005;50.496;15.798;2023-12-20T00:03:38;9.23;;;5.28;;
82374;SDS011;72005;50.496;15.798;2023-12-20T00:06:04;6.55;;;5.28;;
82374;SDS011;72005;50.496;15.798;2023-12-20T00:08:29;7.10;;;5.15;;
82374;SDS011;72005;50.496;15.798;2023-12-20T00:10:55;7.32;;;4.55;;
82374;SDS011;72005;50.496;15.798;2023-12-20T00:13:21;7.43;;;5.15;;
82374;SDS011;72005;50.496;15.798;2023-12-20T00:15:47;7.38;;;5.25;;
82374;SDS011;72005;50.496;15.798;2023-12-20T00:18:12;7.82;;;5.40;;
82374;SDS011;72005;50.496;15.798;2023-12-20T00:20:44;6.45;;;4.50;;
82374;SDS011;72005;50.496;15.798;2023-12-20T00:23:09;7.30;;;5.05;;
82374;SDS011;72005;50.496;15.798;2023-12-20T00:25:35;10.23;;;4.72;;
82374;SDS011;72005;50.496;15.798;2023-12-20T00:28:01;8.20;;;5.05;;
82374;SDS011;72005;50.496;15.798;2023-12-20T00:30:27;7.00;;;4.45;;
82374;SDS011;72005;50.496;15.798;2023-12-20T00:32:53;6.82;;;4.65;;
82374;SDS011;72005;50.496;15.798;2023-12-20T00:35:19;6.22;;;4.65;;
82374;SDS011;72005;50.496;15.798;2023-12-20T00:37:45;8.45;;;5.22;;
82374;SDS011;72005;50.496;15.798;2023-12-20T00:40:11;6.97;;;5.03;;
82374;SDS011;72005;50.496;15.798;2023-12-20T00:42:36;7.68;;;4.85;;
82374;SDS011;72005;50.496;15.798;2023-12-20T00:45:02;9.80;;;4.93;;
82374;SDS011;72005;50.496;15.798;2023-12-20T00:47:30;9.63;;;5.68;;
82374;SDS011;72005;50.496;15.798;2023-12-20T00:49:57;7.70;;;4.50;;
82374;SDS011;72005;50.496;15.798;2023-12-20T00:52:23;6.05;;;4.22;;
82374;SDS011;72005;50.496;15.798;2023-12-20T00:54:49;5.05;;;4.18;;
82374;SDS011;72005;50.496;15.798;2023-12-20T00:57:15;5.60;;;3.97;;
82374;SDS011;72005;50.496;15.798;2023-12-20T00:59:40;6.28;;;4.28;;
82374;SDS011;72005;50.496;15.798;2023-12-20T01:02:06;9.15;;;5.22;;
82374;SDS011;72005;50.496;15.798;2023-12-20T01:04:32;7.50;;;4.95;;
82374;SDS011;72005;50.496;15.798;2023-12-20T01:06:58;7.57;;;5.25;;
82374;SDS011;72005;50.496;15.798;2023-12-20T01:09:24;6.68;;;4.22;;
82374;SDS011;72005;50.496;15.798;2023-12-20T01:11:51;6.88;;;4.82;;
82374;SDS011;72005;50.496;15.798;2023-12-20T01:14:18;5.85;;;4.50;;
82374;SDS011;72005;50.496;15.798;2023-12-20T01:16:43;6.00;;;4.30;;
82374;SDS011;72005;50.496;15.798;2023-12-20T01:19:09;6.40;;;4.25;;
82374;SDS011;72005;50.496;15.798;2023-12-20T01:21:35;5.78;;;4.43;;
82374;SDS011;72005;50.496;15.798;2023-12-20T01:24:00;6.63;;;4.50;;
82374;SDS011;72005;50.496;15.798;2023-12-20T01:26:26;6.28;;;4.05;;
82374;SDS011;72005;50.496;15.798;2023-12-20T01:28:52;8.27;;;3.92;;
82374;SDS011;72005;50.496;15.798;2023-12-20T01:31:17;5.57;;;3.78;;
82374;SDS011;72005;50.496;15.798;2023-12-20T01:33:43;4.70;;;4.03;;
82374;SDS011;72005;50.496;15.798;2023-12-20T01:36:08;3.92;;;3.53;;
82374;SDS011;72005;50.496;15.798;2023-12-20T01:38:34;6.50;;;4.57;;
82374;SDS011;72005;50.496;15.798;2023-12-20T01:41:00;7.38;;;4.63;;
82374;SDS011;72005;50.496;15.798;2023-12-20T01:43:26;6.45;;;3.83;;
82374;SDS011;72005;50.496;15.798;2023-12-20T01:45:51;4.82;;;3.92;;
82374;SDS011;72005;50.496;15.798;2023-12-20T01:48:17;5.05;;;4.00;;
82374;SDS011;72005;50.496;15.798;2023-12-20T01:50:45;5.10;;;3.72;;
82374;SDS011;72005;50.496;15.798;2023-12-20T01:53:11;5.45;;;4.35;;
82374;SDS011;72005;50.496;15.798;2023-12-20T01:55:38;5.65;;;4.40;;
82374;SDS011;72005;50.496;15.798;2023-12-20T01:58:08;4.80;;;3.75;;
82374;SDS011;72005;50.496;15.798;2023-12-20T02:00:35;5.07;;;3.72;;
82374;SDS011;72005;50.496;15.798;2023-12-20T02:03:02;6.03;;;4.18;;
82374;SDS011;72005;50.496;15.798;2023-12-20T02:05:32;7.07;;;4.80;;
82374;SDS011;72005;50.496;15.798;2023-12-20T02:07:59;6.55;;;4.30;;
82374;SDS011;72005;50.496;15.798;2023-12-20T02:10:25;5.10;;;3.90;;
82374;SDS011;72005;50.496;15.798;2023-12-20T02:12:51;5.00;;;3.53;;
82374;SDS011;72005;50.496;15.798;2023-12-20T02:15:17;3.83;;;3.33;;
82374;SDS011;72005;50.496;15.798;2023-12-20T02:17:43;8.05;;;4.50;;
82374;SDS011;72005;50.496;15.798;2023-12-20T02:20:09;5.63;;;4.05;;
82374;SDS011;72005;50.496;15.798;2023-12-20T02:22:35;7.07;;;4.60;;
82374;SDS011;72005;50.496;15.798;2023-12-20T02:25:01;6.10;;;4.60;;
82374;SDS011;72005;50.496;15.798;2023-12-20T02:27:26;6.70;;;4.85;;
82374;SDS011;72005;50.496;15.798;2023-12-20T02:29:54;7.60;;;4.57;;
82374;SDS011;72005;50.496;15.798;2023-12-20T02:32:20;5.75;;;4.55;;
82374;SDS011;72005;50.496;15.798;2023-12-20T02:34:47;5.70;;;3.88;;
82374;SDS011;72005;50.496;15.798;2023-12-20T02:37:13;9.20;;;4.82;;
82374;SDS011;72005;50.496;15.798;2023-12-20T02:39:39;7.78;;;4.82;;
82374;SDS011;72005;50.496;15.798;2023-12-20T02:42:05;5.22;;;4.35;;
82374;SDS011;72005;50.496;15.798;2023-12-20T02:44:30;6.15;;;4.88;;
82374;SDS011;72005;50.496;15.798;2023-12-20T02:46:56;7.70;;;5.03;;
82374;SDS011;72005;50.496;15.798;2023-12-20T02:49:21;6.40;;;4.68;;
82374;SDS011;72005;50.496;15.798;2023-12-20T02:51:47;7.53;;;4.57;;
82374;SDS011;72005;50.496;15.798;2023-12-20T02:54:13;5.68;;;4.50;;
82374;SDS011;72005;50.496;15.798;2023-12-20T02:56:39;7.43;;;4.10;;
82374;SDS011;72005;50.496;15.798;2023-12-20T02:59:04;7.10;;;4.75;;
82374;SDS011;72005;50.496;15.798;2023-12-20T03:01:34;5.32;;;4.43;;
82374;SDS011;72005;50.496;15.798;2023-12-20T03:04:00;8.93;;;4.80;;
82374;SDS011;72005;50.496;15.798;2023-12-20T03:06:26;5.95;;;4.63;;
82374;SDS011;72005;50.496;15.798;2023-12-20T03:08:52;6.15;;;4.85;;
82374;SDS011;72005;50.496;15.798;2023-12-20T03:11:18;4.70;;;4.20;;
82374;SDS011;72005;50.496;15.798;2023-12-20T03:13:43;5.85;;;4.78;;
82374;SDS011;72005;50.496;15.798;2023-12-20T03:16:13;5.45;;;4.57;;
82374;SDS011;72005;50.496;15.798;2023-12-20T03:18:41;5.93;;;4.57;;
82374;SDS011;72005;50.496;15.798;2023-12-20T03:21:07;7.07;;;4.70;;
82374;SDS011;72005;50.496;15.798;2023-12-20T03:23:32;6.75;;;4.35;;
82374;SDS011;72005;50.496;15.798;2023-12-20T03:25:59;5.22;;;4.55;;
82374;SDS011;72005;50.496;15.798;2023-12-20T03:28:25;6.30;;;4.82;;
82374;SDS011;72005;50.496;15.798;2023-12-20T03:30:52;5.32;;;4.18;;
82374;SDS011;72005;50.496;15.798;2023-12-20T03:33:17;5.97;;;4.72;;
82374;SDS011;72005;50.496;15.798;2023-12-20T03:35:43;4.53;;;4.03;;
82374;SDS011;72005;50.496;15.798;2023-12-20T03:38:09;5.65;;;4.30;;
82374;SDS011;72005;50.496;15.798;2023-12-20T03:40:34;4.75;;;3.75;;
82374;SDS011;72005;50.496;15.798;2023-12-20T03:43:00;9.18;;;4.53;;
82374;SDS011;72005;50.496;15.798;2023-12-20T03:45:26;4.93;;;4.00;;
82374;SDS011;72005;50.496;15.798;2023-12-20T03:47:52;5.18;;;3.72;;
82374;SDS011;72005;50.496;15.798;2023-12-20T03:50:22;4.93;;;3.95;;
82374;SDS011;72005;50.496;15.798;2023-12-20T03:52:48;4.97;;;3.88;;
82374;SDS011;72005;50.496;15.798;2023-12-20T03:55:13;5.28;;;4.10;;
82374;SDS011;72005;50.496;15.798;2023-12-20T03:57:39;4.68;;;4.18;;
82374;SDS011;72005;50.496;15.798;2023-12-20T04:00:06;6.70;;;4.55;;
82374;SDS011;72005;50.496;15.798;2023-12-20T04:02:36;4.32;;;3.67;;
82374;SDS011;72005;50.496;15.798;2023-12-20T04:05:02;4.95;;;3.70;;
82374;SDS011;72005;50.496;15.798;2023-12-20T04:07:28;6.18;;;4.85;;
82374;SDS011;72005;50.496;15.798;2023-12-20T04:09:53;5.05;;;4.53;;
82374;SDS011;72005;50.496;15.798;2023-12-20T04:12:19;6.28;;;4.38;;
82374;SDS011;72005;50.496;15.798;2023-12-20T04:14:45;4.60;;;3.95;;
82374;SDS011;72005;50.496;15.798;2023-12-20T04:17:10;5.88;;;4.03;;
82374;SDS011;72005;50.496;15.798;2023-12-20T04:19:36;4.15;;;3.75;;
82374;SDS011;72005;50.496;15.798;2023-12-20T04:22:01;3.92;;;3.53;;
82374;SDS011;72005;50.496;15.798;2023-12-20T04:24:27;4.75;;;3.92;;
82374;SDS011;72005;50.496;15.798;2023-12-20T04:26:53;3.70;;;3.10;;
82374;SDS011;72005;50.496;15.798;2023-12-20T04:29:19;4.13;;;3.47;;
82374;SDS011;72005;50.496;15.798;2023-12-20T04:31:44;4.30;;;3.22;;
82374;SDS011;72005;50.496;15.798;2023-12-20T04:34:10;3.70;;;3.30;;
82374;SDS011;72005;50.496;15.798;2023-12-20T04:36:36;3.42;;;3.05;;
82374;SDS011;72005;50.496;15.798;2023-12-20T04:39:01;4.85;;;3.00;;
82374;SDS011;72005;50.496;15.798;2023-12-20T04:41:28;3.45;;;3.03;;
82374;SDS011;72005;50.496;15.798;2023-12-20T04:43:54;3.25;;;2.72;;
82374;SDS011;72005;50.496;15.798;2023-12-20T04:46:19;2.50;;;2.30;;
82374;SDS011;72005;50.496;15.798;2023-12-20T04:48:45;5.28;;;3.13;;
82374;SDS011;72005;50.496;15.798;2023-12-20T04:51:10;3.85;;;2.47;;
82374;SDS011;72005;50.496;15.798;2023-12-20T04:53:36;2.58;;;2.38;;
82374;SDS011;72005;50.496;15.798;2023-12-20T04:56:02;2.50;;;2.22;;
82374;SDS011;72005;50.496;15.798;2023-12-20T04:58:28;4.15;;;2.25;;
82374;SDS011;72005;50.496;15.798;2023-12-20T05:00:54;2.92;;;2.55;;
82374;SDS011;72005;50.496;15.798;2023-12-20T05:03:19;3.05;;;2.60;;
82374;SDS011;72005;50.496;15.798;2023-12-20T05:05:45;2.20;;;2.00;;
82374;SDS011;72005;50.496;15.798;2023-12-20T05:08:11;2.17;;;1.98;;
82374;SDS011;72005;50.496;15.798;2023-12-20T05:10:36;2.58;;;2.38;;
82374;SDS011;72005;50.496;15.798;2023-12-20T05:13:02;2.38;;;2.17;;
82374;SDS011;72005;50.496;15.798;2023-12-20T05:15:28;2.30;;;2.05;;
82374;SDS011;72005;50.496;15.798;2023-12-20T05:17:53;2.50;;;2.30;;
82374;SDS011;72005;50.496;15.798;2023-12-20T05:20:19;2.30;;;2.10;;
82374;SDS011;72005;50.496;15.798;2023-12-20T05:22:45;2.88;;;2.15;;
82374;SDS011;72005;50.496;15.798;2023-12-20T05:25:11;2.40;;;2.20;;
82374;SDS011;72005;50.496;15.798;2023-12-20T05:27:37;3.15;;;2.65;;
82374;SDS011;72005;50.496;15.798;2023-12-20T05:30:02;2.53;;;2.33;;
82374;SDS011;72005;50.496;15.798;2023-12-20T05:32:30;2.75;;;2.28;;
82374;SDS011;72005;50.496;15.798;2023-12-20T05:34:56;1.98;;;1.88;;
82374;SDS011;72005;50.496;15.798;2023-12-20T05:37:22;2.95;;;2.30;;
82374;SDS011;72005;50.496;15.798;2023-12-20T05:39:47;2.78;;;2.40;;
82374;SDS011;72005;50.496;15.798;2023-12-20T05:42:13;2.30;;;2.10;;
82374;SDS011;72005;50.496;15.798;2023-12-20T05:44:39;3.22;;;2.60;;
82374;SDS011;72005;50.496;15.798;2023-12-20T05:47:05;3.05;;;2.13;;
82374;SDS011;72005;50.496;15.798;2023-12-20T05:49:30;2.60;;;2.35;;
82374;SDS011;72005;50.496;15.798;2023-12-20T05:51:57;4.05;;;2.28;;
82374;SDS011;72005;50.496;15.798;2023-12-20T05:54:22;4.50;;;2.83;;
82374;SDS011;72005;50.496;15.798;2023-12-20T05:56:48;2.92;;;2.67;;
82374;SDS011;72005;50.496;15.798;2023-12-20T05:59:14;3.22;;;2.60;;
82374;SDS011;72005;50.496;15.798;2023-12-20T06:01:40;2.50;;;2.30;;
82374;SDS011;72005;50.496;15.798;2023-12-20T06:04:05;5.03;;;3.53;;
82374;SDS011;72005;50.496;15.798;2023-12-20T06:06:31;3.55;;;2.60;;
82374;SDS011;72005;50.496;15.798;2023-12-20T06:08:56;2.90;;;2.60;;
82374;SDS011;72005;50.496;15.798;2023-12-20T06:11:23;3.80;;;2.63;;
82374;SDS011;72005;50.496;15.798;2023-12-20T06:13:49;4.50;;;2.50;;
82374;SDS011;72005;50.496;15.798;2023-12-20T06:16:17;2.65;;;2.40;;
82374;SDS011;72005;50.496;15.798;2023-12-20T06:18:43;2.45;;;2.22;;
82374;SDS011;72005;50.496;15.798;2023-12-20T06:21:09;2.22;;;2.00;;
82374;SDS011;72005;50.496;15.798;2023-12-20T06:23:38;2.47;;;2.28;;
82374;SDS011;72005;50.496;15.798;2023-12-20T06:26:04;2.90;;;2.42;;
82374;SDS011;72005;50.496;15.798;2023-12-20T06:28:30;2.58;;;2.13;;
82374;SDS011;72005;50.496;15.798;2023-12-20T06:30:55;2.28;;;2.08;;
82374;SDS011;72005;50.496;15.798;2023-12-20T06:33:22;2.40;;;1.85;;
82374;SDS011;72005;50.496;15.798;2023-12-20T06:35:48;2.90;;;2.60;;
82374;SDS011;72005;50.496;15.798;2023-12-20T06:38:14;3.78;;;2.50;;
82374;SDS011;72005;50.496;15.798;2023-12-20T06:40:40;2.90;;;2.10;;
82374;SDS011;72005;50.496;15.798;2023-12-20T06:43:05;2.50;;;2.30;;
82374;SDS011;72005;50.496;15.798;2023-12-20T06:45:32;3.50;;;2.25;;
82374;SDS011;72005;50.496;15.798;2023-12-20T06:47:58;2.85;;;2.55;;
82374;SDS011;72005;50.496;15.798;2023-12-20T06:50:24;3.03;;;2.28;;
82374;SDS011;72005;50.496;15.798;2023-12-20T06:52:49;2.08;;;1.88;;
82374;SDS011;72005;50.496;15.798;2023-12-20T06:55:15;3.05;;;2.40;;
82374;SDS011;72005;50.496;15.798;2023-12-20T06:57:42;3.25;;;1.98;;
82374;SDS011;72005;50.496;15.798;2023-12-20T07:00:08;2.50;;;2.28;;
82374;SDS011;72005;50.496;15.798;2023-12-20T07:02:36;3.30;;;2.58;;
82374;SDS011;72005;50.496;15.798;2023-12-20T07:05:01;2.63;;;2.42;;
82374;SDS011;72005;50.496;15.798;2023-12-20T07:07:27;3.35;;;2.20;;
82374;SDS011;72005;50.496;15.798;2023-12-20T07:09:53;2.20;;;2.00;;
82374;SDS011;72005;50.496;15.798;2023-12-20T07:12:18;2.67;;;2.13;;
82374;SDS011;72005;50.496;15.798;2023-12-20T07:14:45;4.35;;;1.83;;
82374;SDS011;72005;50.496;15.798;2023-12-20T07:17:11;1.83;;;1.73;;
82374;SDS011;72005;50.496;15.798;2023-12-20T07:19:39;2.00;;;1.80;;
82374;SDS011;72005;50.496;15.798;2023-12-20T07:22:05;2.03;;;1.85;;
82374;SDS011;72005;50.496;15.798;2023-12-20T07:24:32;1.95;;;1.70;;
82374;SDS011;72005;50.496;15.798;2023-12-20T07:26:58;1.70;;;1.60;;
82374;SDS011;72005;50.496;15.798;2023-12-20T07:29:25;2.50;;;1.90;;
82374;SDS011;72005;50.496;15.798;2023-12-20T07:31:50;2.15;;;1.60;;
82374;SDS011;72005;50.496;15.798;2023-12-20T07:34:17;1.45;;;1.35;;
82374;SDS011;72005;50.496;15.798;2023-12-20T07:36:43;2.08;;;1.40;;
82374;SDS011;72005;50.496;15.798;2023-12-20T07:39:09;1.40;;;1.30;;
82374;SDS011;72005;50.496;15.798;2023-12-20T07:41:35;1.35;;;1.25;;
82374;SDS011;72005;50.496;15.798;2023-12-20T07:44:00;1.30;;;1.20;;
82374;SDS011;72005;50.496;15.798;2023-12-20T07:46:26;1.50;;;1.30;;
82374;SDS011;72005;50.496;15.798;2023-12-20T07:48:52;1.48;;;1.10;;
82374;SDS011;72005;50.496;15.798;2023-12-20T07:51:17;1.85;;;1.45;;
82374;SDS011;72005;50.496;15.798;2023-12-20T07:53:43;1.40;;;1.20;;
82374;SDS011;72005;50.496;15.798;2023-12-20T07:56:18;1.65;;;1.52;;
82374;SDS011;72005;50.496;15.798;2023-12-20T07:58:45;1.30;;;1.23;;
82374;SDS011;72005;50.496;15.798;2023-12-20T08:01:11;1.50;;;1.40;;
82374;SDS011;72005;50.496;15.798;2023-12-20T08:03:38;1.52;;;1.10;;
82374;SDS011;72005;50.496;15.798;2023-12-20T08:06:04;1.35;;;1.25;;
82374;SDS011;72005;50.496;15.798;2023-12-20T08:08:30;1.30;;;1.20;;
82374;SDS011;72005;50.496;15.798;2023-12-20T08:10:56;1.08;;;0.98;;
82374;SDS011;72005;50.496;15.798;2023-12-20T08:13:24;1.23;;;1.13;;
82374;SDS011;72005;50.496;15.798;2023-12-20T08:15:51;1.25;;;1.17;;
82374;SDS011;72005;50.496;15.798;2023-12-20T08:18:17;1.30;;;1.20;;
82374;SDS011;72005;50.496;15.798;2023-12-20T08:20:43;1.23;;;1.13;;
82374;SDS011;72005;50.496;15.798;2023-12-20T08:23:09;1.15;;;1.05;;
82374;SDS011;72005;50.496;15.798;2023-12-20T08:25:34;1.52;;;1.15;;
82374;SDS011;72005;50.496;15.798;2023-12-20T08:28:01;1.23;;;1.10;;
82374;SDS011;72005;50.496;15.798;2023-12-20T08:30:28;1.55;;;0.90;;
82374;SDS011;72005;50.496;15.798;2023-12-20T08:32:55;2.88;;;1.30;;
82374;SDS011;72005;50.496;15.798;2023-12-20T08:35:20;1.30;;;1.15;;
82374;SDS011;72005;50.496;15.798;2023-12-20T08:37:46;1.20;;;1.10;;
82374;SDS011;72005;50.496;15.798;2023-12-20T08:40:12;1.23;;;1.13;;
82374;SDS011;72005;50.496;15.798;2023-12-20T08:42:38;1.20;;;1.10;;
82374;SDS011;72005;50.496;15.798;2023-12-20T08:45:03;0.95;;;0.93;;
82374;SDS011;72005;50.496;15.798;2023-12-20T08:47:30;0.82;;;0.82;;
82374;SDS011;72005;50.496;15.798;2023-12-20T08:49:55;1.15;;;1.15;;
82374;SDS011;72005;50.496;15.798;2023-12-20T08:52:23;1.15;;;1.05;;
82374;SDS011;72005;50.496;15.798;2023-12-20T08:54:49;1.25;;;1.15;;
82374;SDS011;72005;50.496;15.798;2023-12-20T08:57:22;0.90;;;0.90;;
82374;SDS011;72005;50.496;15.798;2023-12-20T08:59:49;1.25;;;1.15;;
82374;SDS011;72005;50.496;15.798;2023-12-20T09:02:15;1.63;;;1.52;;
82374;SDS011;72005;50.496;15.798;2023-12-20T09:04:41;1.27;;;1.17;;
82374;SDS011;72005;50.496;15.798;2023-12-20T09:07:20;1.75;;;1.40;;
82374;SDS011;72005;50.496;15.798;2023-12-20T09:09:49;2.00;;;1.67;;
82374;SDS011;72005;50.496;15.798;2023-12-20T09:12:17;3.33;;;1.58;;
82374;SDS011;72005;50.496;15.798;2023-12-20T09:14:43;1.60;;;1.50;;
82374;SDS011;72005;50.496;15.798;2023-12-20T09:17:09;1.52;;;1.42;;
82374;SDS011;72005;50.496;15.798;2023-12-20T09:19:36;1.67;;;1.50;;
82374;SDS011;72005;50.496;15.798;2023-12-20T09:22:02;1.90;;;1.70;;
82374;SDS011;72005;50.496;15.798;2023-12-20T09:24:29;4.13;;;2.20;;
82374;SDS011;72005;50.496;15.798;2023-12-20T09:26:56;2.20;;;2.00;;
82374;SDS011;72005;50.496;15.798;2023-12-20T09:29:21;2.45;;;2.10;;
82374;SDS011;72005;50.496;15.798;2023-12-20T09:31:47;2.45;;;2.22;;
82374;SDS011;72005;50.496;15.798;2023-12-20T09:34:14;3.05;;;2.08;;
82374;SDS011;72005;50.496;15.798;2023-12-20T09:36:41;3.45;;;2.35;;
82374;SDS011;72005;50.496;15.798;2023-12-20T09:39:11;2.30;;;2.10;;
82374;SDS011;72005;50.496;15.798;2023-12-20T09:41:39;2.85;;;2.15;;
82374;SDS011;72005;50.496;15.798;2023-12-20T09:44:08;1.60;;;1.50;;
82374;SDS011;72005;50.496;15.798;2023-12-20T09:46:42;2.10;;;1.90;;
82374;SDS011;72005;50.496;15.798;2023-12-20T09:49:09;5.50;;;2.50;;
82374;SDS011;72005;50.496;15.798;2023-12-20T09:51:36;2.05;;;1.95;;
82374;SDS011;72005;50.496;15.798;2023-12-20T09:54:03;2.00;;;1.90;;
82374;SDS011;72005;50.496;15.798;2023-12-20T09:56:29;1.98;;;1.88;;
82374;SDS011;72005;50.496;15.798;2023-12-20T09:58:56;1.75;;;1.65;;
82374;SDS011;72005;50.496;15.798;2023-12-20T10:01:22;1.85;;;1.75;;
82374;SDS011;72005;50.496;15.798;2023-12-20T10:03:48;2.03;;;1.92;;
82374;SDS011;72005;50.496;15.798;2023-12-20T10:06:16;2.03;;;1.88;;
82374;SDS011;72005;50.496;15.798;2023-12-20T10:08:42;1.73;;;1.63;;
82374;SDS011;72005;50.496;15.798;2023-12-20T10:11:08;1.98;;;1.88;;
82374;SDS011;72005;50.496;15.798;2023-12-20T10:13:34;1.92;;;1.83;;
82374;SDS011;72005;50.496;15.798;2023-12-20T10:16:06;2.92;;;2.08;;
82374;SDS011;72005;50.496;15.798;2023-12-20T10:18:35;2.50;;;2.30;;
82374;SDS011;72005;50.496;15.798;2023-12-20T10:21:01;2.85;;;2.25;;
82374;SDS011;72005;50.496;15.798;2023-12-20T10:23:28;3.83;;;2.42;;
82374;SDS011;72005;50.496;15.798;2023-12-20T10:25:56;2.83;;;2.42;;
82374;SDS011;72005;50.496;15.798;2023-12-20T10:28:23;3.45;;;2.45;;
82374;SDS011;72005;50.496;15.798;2023-12-20T10:30:53;3.10;;;2.53;;
82374;SDS011;72005;50.496;15.798;2023-12-20T10:33:26;2.30;;;2.10;;
82374;SDS011;72005;50.496;15.798;2023-12-20T10:35:54;2.50;;;2.30;;
82374;SDS011;72005;50.496;15.798;2023-12-20T10:38:20;2.63;;;2.40;;
82374;SDS011;72005;50.496;15.798;2023-12-20T10:40:47;2.70;;;2.50;;
82374;SDS011;72005;50.496;15.798;2023-12-20T10:43:15;2.50;;;2.30;;
82374;SDS011;72005;50.496;15.798;2023-12-20T10:45:41;4.97;;;2.80;;
82374;SDS011;72005;50.496;15.798;2023-12-20T10:48:07;2.88;;;2.58;;
82374;SDS011;72005;50.496;15.798;2023-12-20T10:50:35;2.33;;;2.13;;
82374;SDS011;72005;50.496;15.798;2023-12-20T10:53:03;3.65;;;2.65;;
82374;SDS011;72005;50.496;15.798;2023-12-20T10:55:29;2.78;;;2.53;;
82374;SDS011;72005;50.496;15.798;2023-12-20T10:57:58;4.80;;;3.10;;
82374;SDS011;72005;50.496;15.798;2023-12-20T11:00:26;2.42;;;2.22;;
82374;SDS011;72005;50.496;15.798;2023-12-20T11:02:56;3.10;;;2.67;;
82374;SDS011;72005;50.496;15.798;2023-12-20T11:05:30;3.67;;;2.40;;
82374;SDS011;72005;50.496;15.798;2023-12-20T11:08:06;3.95;;;2.70;;
82374;SDS011;72005;50.496;15.798;2023-12-20T11:13:20;2.60;;;2.40;;
82374;SDS011;72005;50.496;15.798;2023-12-20T11:15:49;2.58;;;2.35;;
82374;SDS011;72005;50.496;15.798;2023-12-20T11:18:15;2.78;;;2.47;;
82374;SDS011;72005;50.496;15.798;2023-12-20T11:20:41;2.42;;;2.22;;
82374;SDS011;72005;50.496;15.798;2023-12-20T11:23:07;2.00;;;1.90;;
82374;SDS011;72005;50.496;15.798;2023-12-20T11:25:47;3.08;;;2.40;;
82374;SDS011;72005;50.496;15.798;2023-12-20T11:28:14;2.53;;;2.30;;
82374;SDS011;72005;50.496;15.798;2023-12-20T11:30:46;3.47;;;2.90;;
82374;SDS011;72005;50.496;15.798;2023-12-20T11:33:15;2.80;;;2.50;;
82374;SDS011;72005;50.496;15.798;2023-12-20T11:35:42;18.63;;;10.35;;
82374;SDS011;72005;50.496;15.798;2023-12-20T11:38:09;22.75;;;14.52;;
82374;SDS011;72005;50.496;15.798;2023-12-20T11:40:35;5.68;;;5.07;;
82374;SDS011;72005;50.496;15.798;2023-12-20T11:43:02;34.17;;;17.45;;
82374;SDS011;72005;50.496;15.798;2023-12-20T11:45:30;7.18;;;4.88;;
82374;SDS011;72005;50.496;15.798;2023-12-20T11:47:56;4.35;;;3.47;;
82374;SDS011;72005;50.496;15.798;2023-12-20T11:50:23;3.00;;;2.70;;
82374;SDS011;72005;50.496;15.798;2023-12-20T11:52:49;4.22;;;3.53;;
82374;SDS011;72005;50.496;15.798;2023-12-20T11:55:17;5.97;;;4.50;;
82374;SDS011;72005;50.496;15.798;2023-12-20T11:57:43;10.60;;;6.97;;
82374;SDS011;72005;50.496;15.798;2023-12-20T12:00:09;9.73;;;6.13;;
82374;SDS011;72005;50.496;15.798;2023-12-20T12:02:35;10.98;;;6.45;;
82374;SDS011;72005;50.496;15.798;2023-12-20T12:05:01;13.90;;;7.80;;
82374;SDS011;72005;50.496;15.798;2023-12-20T12:07:27;12.50;;;9.35;;
82374;SDS011;72005;50.496;15.798;2023-12-20T12:09:53;15.07;;;10.75;;
82374;SDS011;72005;50.496;15.798;2023-12-20T12:12:19;4.72;;;2.83;;
82374;SDS011;72005;50.496;15.798;2023-12-20T12:14:45;7.72;;;6.50;;
82374;SDS011;72005;50.496;15.798;2023-12-20T12:17:11;4.75;;;3.70;;
82374;SDS011;72005;50.496;15.798;2023-12-20T12:19:38;5.05;;;4.07;;
82374;SDS011;72005;50.496;15.798;2023-12-20T12:22:05;2.95;;;2.67;;
82374;SDS011;72005;50.496;15.798;2023-12-20T12:24:41;4.57;;;2.75;;
82374;SDS011;72005;50.496;15.798;2023-12-20T12:27:07;2.85;;;2.38;;
82374;SDS011;72005;50.496;15.798;2023-12-20T12:29:33;3.10;;;2.78;;
82374;SDS011;72005;50.496;15.798;2023-12-20T12:32:00;7.15;;;5.43;;
82374;SDS011;72005;50.496;15.798;2023-12-20T12:34:29;3.78;;;2.70;;
82374;SDS011;72005;50.496;15.798;2023-12-20T12:36:55;2.47;;;2.28;;
82374;SDS011;72005;50.496;15.798;2023-12-20T12:39:22;3.25;;;2.40;;
82374;SDS011;72005;50.496;15.798;2023-12-20T12:41:50;5.88;;;4.13;;
82374;SDS011;72005;50.496;15.798;2023-12-20T12:44:16;13.90;;;11.05;;
82374;SDS011;72005;50.496;15.798;2023-12-20T12:46:43;3.20;;;2.63;;
82374;SDS011;72005;50.496;15.798;2023-12-20T12:49:10;6.25;;;5.05;;
82374;SDS011;72005;50.496;15.798;2023-12-20T12:51:36;7.15;;;4.53;;
82374;SDS011;72005;50.496;15.798;2023-12-20T12:54:01;4.50;;;3.72;;
82374;SDS011;72005;50.496;15.798;2023-12-20T12:56:27;7.30;;;4.53;;
82374;SDS011;72005;50.496;15.798;2023-12-20T12:58:53;5.47;;;2.53;;
82374;SDS011;72005;50.496;15.798;2023-12-20T13:01:19;5.40;;;2.25;;
82374;SDS011;72005;50.496;15.798;2023-12-20T13:03:44;5.38;;;2.63;;
82374;SDS011;72005;50.496;15.798;2023-12-20T13:06:10;4.78;;;2.97;;
82374;SDS011;72005;50.496;15.798;2023-12-20T13:08:36;9.27;;;4.15;;
82374;SDS011;72005;50.496;15.798;2023-12-20T13:11:01;17.08;;;7.63;;
82374;SDS011;72005;50.496;15.798;2023-12-20T13:13:29;12.95;;;6.43;;
82374;SDS011;72005;50.496;15.798;2023-12-20T13:15:56;6.93;;;4.30;;
82374;SDS011;72005;50.496;15.798;2023-12-20T13:18:22;3.22;;;2.47;;
82374;SDS011;72005;50.496;15.798;2023-12-20T13:20:48;4.95;;;4.00;;
82374;SDS011;72005;50.496;15.798;2023-12-20T13:23:14;2.75;;;1.70;;
82374;SDS011;72005;50.496;15.798;2023-12-20T13:25:40;1.88;;;1.63;;
82374;SDS011;72005;50.496;15.798;2023-12-20T13:28:06;2.67;;;1.85;;
82374;SDS011;72005;50.496;15.798;2023-12-20T13:30:33;3.08;;;1.90;;
82374;SDS011;72005;50.496;15.798;2023-12-20T13:32:59;2.78;;;1.48;;
82374;SDS011;72005;50.496;15.798;2023-12-20T13:35:25;1.83;;;1.40;;
82374;SDS011;72005;50.496;15.798;2023-12-20T13:37:51;2.70;;;2.05;;
82374;SDS011;72005;50.496;15.798;2023-12-20T13:40:17;4.63;;;2.88;;
82374;SDS011;72005;50.496;15.798;2023-12-20T13:42:43;2.92;;;2.40;;
82374;SDS011;72005;50.496;15.798;2023-12-20T13:45:08;3.40;;;2.28;;
82374;SDS011;72005;50.496;15.798;2023-12-20T13:47:35;2.08;;;1.98;;
82374;SDS011;72005;50.496;15.798;2023-12-20T13:50:02;11.60;;;4.50;;
82374;SDS011;72005;50.496;15.798;2023-12-20T13:52:29;3.20;;;2.00;;
82374;SDS011;72005;50.496;15.798;2023-12-20T13:54:55;2.50;;;1.67;;
82374;SDS011;72005;50.496;15.798;2023-12-20T13:57:21;4.63;;;2.03;;
82374;SDS011;72005;50.496;15.798;2023-12-20T13:59:46;5.72;;;1.90;;
82374;SDS011;72005;50.496;15.798;2023-12-20T14:02:13;2.22;;;1.77;;
82374;SDS011;72005;50.496;15.798;2023-12-20T14:04:38;6.13;;;1.73;;
82374;SDS011;72005;50.496;15.798;2023-12-20T14:07:04;2.15;;;1.65;;
82374;SDS011;72005;50.496;15.798;2023-12-20T14:09:33;2.25;;;1.67;;
82374;SDS011;72005;50.496;15.798;2023-12-20T14:11:59;3.03;;;1.90;;
82374;SDS011;72005;50.496;15.798;2023-12-20T14:14:25;6.35;;;4.28;;
82374;SDS011;72005;50.496;15.798;2023-12-20T14:16:50;6.60;;;4.90;;
82374;SDS011;72005;50.496;15.798;2023-12-20T14:19:16;7.43;;;4.95;;
82374;SDS011;72005;50.496;15.798;2023-12-20T14:21:42;2.38;;;1.80;;
82374;SDS011;72005;50.496;15.798;2023-12-20T14:24:11;3.35;;;2.10;;
82374;SDS011;72005;50.496;15.798;2023-12-20T14:26:40;3.60;;;1.80;;
82374;SDS011;72005;50.496;15.798;2023-12-20T14:29:06;62.83;;;31.92;;
82374;SDS011;72005;50.496;15.798;2023-12-20T14:31:33;157.40;;;48.00;;